Time;durP1;ratioP1;P1;durP2;ratioP2;P2;SDS_P1;SDS_P2;PMS_P1;PMS_P2;Temp;Humidity;BMP_temperature;BMP_pressure;BME280_temperature;BME280_humidity;BME280_pressure;Samples;Min_cycle;Max_cycle;Signal;HPM_P1;HPM_P2
2023/07/22 00:00:09;;;;;;;2.10;1.90;;;20.70;64.50;;;;;;5125966;27;20166;-83
2023/07/22 00:02:35;;;;;;;2.30;2.10;;;20.70;64.60;;;;;;5142869;27;20219;-84
2023/07/22 00:05:00;;;;;;;2.38;2.17;;;20.70;64.50;;;;;;5142730;27;20190;-83
2023/07/22 00:07:26;;;;;;;2.90;2.30;;;20.70;64.60;;;;;;5142663;27;20178;-84
2023/07/22 00:09:52;;;;;;;2.40;2.20;;;20.70;64.60;;;;;;5140598;27;20234;-85
2023/07/22 00:12:25;;;;;;;2.38;2.17;;;20.70;64.60;;;;;;5139537;27;20502;-86
2023/07/22 00:14:51;;;;;;;2.60;2.15;;;20.70;64.50;;;;;;5089868;27;20186;-84
2023/07/22 00:17:17;;;;;;;2.40;2.20;;;20.70;64.50;;;;;;5139377;27;20203;-84
2023/07/22 00:19:43;;;;;;;2.50;2.30;;;20.70;64.50;;;;;;5139363;27;20169;-85
2023/07/22 00:22:09;;;;;;;2.15;1.95;;;20.70;64.60;;;;;;5139404;27;20211;-85
2023/07/22 00:24:35;;;;;;;2.60;2.40;;;20.70;64.60;;;;;;5139277;27;20159;-86
2023/07/22 00:27:01;;;;;;;2.28;2.08;;;20.70;64.60;;;;;;5139475;27;20581;-85
2023/07/22 00:29:27;;;;;;;2.20;2.00;;;20.70;64.60;;;;;;5121994;27;20254;-87
2023/07/22 00:31:53;;;;;;;2.30;2.10;;;20.70;64.60;;;;;;5139436;27;20151;-87
2023/07/22 00:34:19;;;;;;;2.50;2.30;;;20.70;64.50;;;;;;5139500;27;20154;-85
2023/07/22 00:36:47;;;;;;;2.40;2.20;;;20.70;64.60;;;;;;5139018;27;20236;-85
2023/07/22 00:39:14;;;;;;;2.65;2.45;;;20.70;64.60;;;;;;5157443;27;20151;-84
2023/07/22 00:41:42;;;;;;;2.40;2.20;;;20.70;64.60;;;;;;5138894;27;20175;-86
2023/07/22 00:44:08;;;;;;;2.30;2.10;;;20.70;64.60;;;;;;5157667;27;20147;-84
2023/07/22 00:46:34;;;;;;;2.20;2.00;;;20.70;64.60;;;;;;5157573;27;20174;-86
2023/07/22 00:49:00;;;;;;;2.35;2.15;;;20.70;64.70;;;;;;5157256;27;20190;-86
2023/07/22 00:51:25;;;;;;;2.22;2.03;;;20.70;64.70;;;;;;5121297;27;20233;-85
2023/07/22 00:53:55;;;;;;;2.33;2.13;;;20.60;64.60;;;;;;5104480;27;20173;-85
2023/07/22 00:56:21;;;;;;;2.25;2.05;;;20.70;64.70;;;;;;5087015;27;20218;-86
2023/07/22 00:58:47;;;;;;;2.60;2.30;;;20.70;64.50;;;;;;5138998;27;20173;-83
2023/07/22 01:01:13;;;;;;;2.47;2.28;;;20.70;64.60;;;;;;5156950;27;20151;-83
2023/07/22 01:03:43;;;;;;;2.40;2.20;;;20.70;64.60;;;;;;5138921;27;20147;-85
2023/07/22 01:06:09;;;;;;;2.47;2.28;;;20.70;64.70;;;;;;5103923;27;20665;-84
2023/07/22 01:08:35;;;;;;;2.30;2.10;;;20.70;64.70;;;;;;5138530;27;20151;-84
2023/07/22 01:11:01;;;;;;;2.72;2.42;;;20.70;64.70;;;;;;5156867;27;20512;-85
2023/07/22 01:13:28;;;;;;;2.00;1.80;;;20.70;64.70;;;;;;5138668;27;20163;-82
2023/07/22 01:15:54;;;;;;;2.40;2.20;;;20.60;64.70;;;;;;5156793;27;20278;-86
2023/07/22 01:18:20;;;;;;;2.45;2.25;;;20.60;64.70;;;;;;5156934;27;20567;-85
2023/07/22 01:20:46;;;;;;;2.00;1.90;;;20.70;64.70;;;;;;5137637;27;20171;-83
2023/07/22 01:23:12;;;;;;;2.30;2.10;;;20.70;64.50;;;;;;5137970;27;20170;-83
2023/07/22 01:25:38;;;;;;;2.10;1.90;;;20.70;64.50;;;;;;5138062;27;20162;-86
2023/07/22 01:28:08;;;;;;;2.53;2.33;;;20.70;64.60;;;;;;5138518;27;20151;-83
2023/07/22 01:30:34;;;;;;;2.40;2.20;;;20.60;64.50;;;;;;5138336;27;20157;-83
2023/07/22 01:33:00;;;;;;;2.35;2.15;;;20.70;64.70;;;;;;5120952;27;20162;-83
2023/07/22 01:35:26;;;;;;;2.30;2.10;;;20.60;64.70;;;;;;5156303;27;20258;-86
2023/07/22 01:37:56;;;;;;;2.38;2.17;;;20.60;64.70;;;;;;5120721;27;20605;-82
2023/07/22 01:40:24;;;;;;;2.63;2.10;;;20.60;64.70;;;;;;5103072;27;20227;-86
2023/07/22 01:42:50;;;;;;;2.53;2.30;;;20.60;64.50;;;;;;5137852;27;20207;-87
2023/07/22 01:45:16;;;;;;;2.25;2.05;;;20.70;64.70;;;;;;5137725;27;20159;-85
2023/07/22 01:47:42;;;;;;;2.30;2.10;;;20.60;64.70;;;;;;5137928;27;20617;-86
2023/07/22 01:50:12;;;;;;;2.17;1.90;;;20.70;64.70;;;;;;5156125;27;20155;-86
2023/07/22 01:52:38;;;;;;;2.30;2.10;;;20.60;64.60;;;;;;5102979;27;20270;-86
2023/07/22 01:55:06;;;;;;;2.30;2.10;;;20.60;64.50;;;;;;5137417;27;20158;-85
2023/07/22 01:57:33;;;;;;;2.40;2.17;;;20.60;64.50;;;;;;5137535;27;20182;-84
2023/07/22 01:59:58;;;;;;;2.40;2.08;;;20.70;64.70;;;;;;5137506;27;20150;-86
2023/07/22 02:02:25;;;;;;;2.20;2.00;;;20.70;64.70;;;;;;5137362;27;20158;-85
2023/07/22 02:04:51;;;;;;;2.60;2.25;;;20.60;64.60;;;;;;5137316;27;20644;-83
2023/07/22 02:07:21;;;;;;;2.25;2.05;;;20.60;64.70;;;;;;5137443;27;20617;-83
2023/07/22 02:09:46;;;;;;;2.40;2.20;;;20.50;64.80;;;;;;5069180;27;20175;-85
2023/07/22 02:12:12;;;;;;;2.28;2.08;;;20.60;64.80;;;;;;5137078;27;20223;-84
2023/07/22 02:14:38;;;;;;;2.22;2.03;;;20.60;64.70;;;;;;5137238;27;20241;-82
2023/07/22 02:17:09;;;;;;;2.20;2.00;;;20.60;64.70;;;;;;5119982;27;20293;-83
2023/07/22 02:19:38;;;;;;;2.30;2.10;;;20.60;64.70;;;;;;5085778;27;20175;-82
2023/07/22 02:22:05;;;;;;;1.98;1.85;;;20.60;64.70;;;;;;5085619;27;20185;-84
2023/07/22 02:24:31;;;;;;;2.13;1.92;;;20.70;64.70;;;;;;5155483;27;20233;-85
2023/07/22 02:27:01;;;;;;;2.20;2.00;;;20.60;64.70;;;;;;5137222;27;20163;-83
2023/07/22 02:29:27;;;;;;;2.30;2.10;;;20.60;64.70;;;;;;5102795;27;20178;-83
2023/07/22 02:31:53;;;;;;;2.15;1.95;;;20.60;64.70;;;;;;5119648;27;20218;-85
2023/07/22 02:34:19;;;;;;;2.10;1.90;;;20.60;64.70;;;;;;5119603;27;20271;-82
2023/07/22 02:36:45;;;;;;;1.90;1.80;;;20.60;64.50;;;;;;5155392;27;20186;-86
2023/07/22 02:39:11;;;;;;;2.55;2.30;;;20.60;64.50;;;;;;5136592;27;20161;-86
2023/07/22 02:41:37;;;;;;;2.33;2.13;;;20.60;64.60;;;;;;5119477;27;20303;-85
2023/07/22 02:44:03;;;;;;;2.45;2.03;;;20.60;64.70;;;;;;5136651;27;20536;-84
2023/07/22 02:46:29;;;;;;;2.33;2.13;;;20.60;64.70;;;;;;5119498;27;20189;-84
2023/07/22 02:48:55;;;;;;;2.40;2.20;;;20.60;64.70;;;;;;5136890;27;20649;-85
2023/07/22 02:51:21;;;;;;;2.13;1.92;;;20.60;64.60;;;;;;5115816;28;20574;-84
2023/07/22 02:53:47;;;;;;;2.10;1.90;;;20.60;64.70;;;;;;5099013;28;20175;-83
2023/07/22 02:56:13;;;;;;;1.98;1.83;;;20.60;64.70;;;;;;5133379;27;20204;-86
2023/07/22 02:58:39;;;;;;;2.13;1.92;;;20.60;64.70;;;;;;5115925;28;20171;-83
2023/07/22 03:01:05;;;;;;;2.10;1.90;;;20.60;64.60;;;;;;5133024;28;20159;-86
2023/07/22 03:03:33;;;;;;;2.30;2.10;;;20.70;64.70;;;;;;5134299;28;20193;-85
2023/07/22 03:06:00;;;;;;;2.22;2.03;;;20.60;64.60;;;;;;5133109;28;20190;-84
2023/07/22 03:08:26;;;;;;;2.10;1.90;;;20.60;64.70;;;;;;5134246;28;20231;-84
2023/07/22 03:10:52;;;;;;;1.90;1.80;;;20.60;64.70;;;;;;5132968;28;20230;-85
2023/07/22 03:13:18;;;;;;;2.00;1.80;;;20.60;64.70;;;;;;5134384;28;20159;-85
2023/07/22 03:15:44;;;;;;;2.10;1.90;;;20.50;64.70;;;;;;5115811;28;20202;-86
2023/07/22 03:18:10;;;;;;;2.05;1.85;;;20.60;64.60;;;;;;5132785;28;20212;-84
2023/07/22 03:20:37;;;;;;;2.25;2.05;;;20.60;64.70;;;;;;5115823;28;20167;-86
2023/07/22 03:23:03;;;;;;;2.33;2.10;;;20.50;64.70;;;;;;5116347;28;20159;-85
2023/07/22 03:25:29;;;;;;;2.25;1.85;;;20.50;64.80;;;;;;5115680;28;20552;-85
2023/07/22 03:27:56;;;;;;;1.70;1.60;;;20.50;64.80;;;;;;5132895;28;20152;-85
2023/07/22 03:30:22;;;;;;;2.22;2.03;;;20.50;64.80;;;;;;5132937;28;20143;-84
2023/07/22 03:32:50;;;;;;;1.92;1.80;;;20.50;64.80;;;;;;5132797;28;20174;-87
2023/07/22 03:35:16;;;;;;;2.20;2.00;;;20.50;64.70;;;;;;5132830;28;20171;-85
2023/07/22 03:37:46;;;;;;;2.20;2.00;;;20.60;64.70;;;;;;5115454;28;20236;-84
2023/07/22 03:40:14;;;;;;;2.00;1.90;;;20.60;64.70;;;;;;5097883;28;20171;-84
2023/07/22 03:42:43;;;;;;;2.00;1.80;;;20.60;64.70;;;;;;5133889;28;20159;-85
2023/07/22 03:45:09;;;;;;;2.75;1.92;;;20.60;64.50;;;;;;5134112;27;20165;-86
2023/07/22 03:47:35;;;;;;;2.15;1.98;;;20.60;64.40;;;;;;5136638;27;20156;-86
2023/07/22 03:50:01;;;;;;;2.10;1.90;;;20.70;64.30;;;;;;5136465;27;20262;-85
2023/07/22 03:52:27;;;;;;;2.20;2.00;;;20.70;64.30;;;;;;5136339;27;20215;-87
2023/07/22 03:54:53;;;;;;;2.40;2.20;;;20.70;64.30;;;;;;5136479;27;20170;-86
2023/07/22 03:57:19;;;;;;;2.30;2.08;;;20.60;64.00;;;;;;5137622;27;20183;-82
2023/07/22 03:59:45;;;;;;;2.20;2.00;;;20.70;64.10;;;;;;5136391;27;20610;-87
2023/07/22 04:02:11;;;;;;;2.22;2.00;;;20.70;64.00;;;;;;5136231;27;20147;-83
2023/07/22 04:04:37;;;;;;;2.25;2.05;;;20.60;64.00;;;;;;5137454;27;20151;-86
2023/07/22 04:07:07;;;;;;;2.15;1.95;;;20.70;63.90;;;;;;5136220;27;20152;-85
2023/07/22 04:09:33;;;;;;;1.92;1.80;;;20.70;63.80;;;;;;5137902;27;20236;-85
2023/07/22 04:12:03;;;;;;;1.98;1.80;;;20.80;64.00;;;;;;5119177;27;20563;-85
2023/07/22 04:14:29;;;;;;;2.03;1.85;;;20.70;63.80;;;;;;5101371;27;20186;-88
2023/07/22 04:16:55;;;;;;;1.90;1.80;;;20.80;63.80;;;;;;5137301;27;20549;-84
2023/07/22 04:19:21;;;;;;;2.25;1.90;;;20.70;64.50;;;;;;5137171;27;20151;-84
2023/07/22 04:21:47;;;;;;;2.10;2.00;;;20.70;63.60;;;;;;5118850;27;20159;-86
2023/07/22 04:24:13;;;;;;;1.85;1.73;;;20.80;63.60;;;;;;5135910;27;20228;-86
2023/07/22 04:26:42;;;;;;;2.10;1.83;;;20.80;63.60;;;;;;5137589;27;20162;-86
2023/07/22 04:29:09;;;;;;;1.98;1.83;;;20.80;63.40;;;;;;5137045;27;20160;-87
2023/07/22 04:31:35;;;;;;;2.00;1.80;;;20.90;63.50;;;;;;5118567;27;20495;-84
2023/07/22 04:34:01;;;;;;;1.85;1.73;;;20.90;63.50;;;;;;5135634;27;20238;-83
2023/07/22 04:36:27;;;;;;;2.17;1.98;;;20.90;63.30;;;;;;5136862;27;20645;-84
2023/07/22 04:38:53;;;;;;;2.28;2.08;;;20.90;63.20;;;;;;5118447;27;20198;-84
2023/07/22 04:41:19;;;;;;;1.98;1.88;;;20.90;63.30;;;;;;5135562;27;20168;-86
2023/07/22 04:43:45;;;;;;;2.10;1.90;;;20.90;63.20;;;;;;5135495;27;20537;-86
2023/07/22 04:46:11;;;;;;;1.90;1.80;;;21.00;63.00;;;;;;5136624;27;20606;-84
2023/07/22 04:48:37;;;;;;;2.25;2.05;;;21.00;63.00;;;;;;5135519;27;20232;-86
2023/07/22 04:51:02;;;;;;;1.83;1.73;;;21.00;63.00;;;;;;5136931;27;20156;-85
2023/07/22 04:53:28;;;;;;;1.80;1.70;;;21.00;62.90;;;;;;5138834;27;20303;-84
2023/07/22 04:55:55;;;;;;;1.92;1.83;;;21.00;62.80;;;;;;5138338;27;20680;-87
2023/07/22 04:58:21;;;;;;;1.77;1.67;;;21.00;62.70;;;;;;5122154;27;20215;-84
2023/07/22 05:00:48;;;;;;;1.70;1.60;;;21.10;62.70;;;;;;5138751;27;20151;-85
2023/07/22 05:03:14;;;;;;;2.08;1.90;;;21.10;62.30;;;;;;5138443;27;20261;-87
2023/07/22 05:05:40;;;;;;;2.13;1.92;;;21.10;62.40;;;;;;5138964;27;20209;-84
2023/07/22 05:08:10;;;;;;;1.80;1.70;;;21.10;62.50;;;;;;5157017;27;20609;-85
2023/07/22 05:10:37;;;;;;;2.75;2.15;;;21.20;62.30;;;;;;5103870;27;20179;-82
2023/07/22 05:13:03;;;;;;;1.90;1.80;;;21.10;62.20;;;;;;5121310;27;20162;-82
2023/07/22 05:15:30;;;;;;;1.90;1.70;;;21.20;62.30;;;;;;5156733;27;20162;-86
2023/07/22 05:17:56;;;;;;;1.83;1.73;;;21.20;62.10;;;;;;5156770;27;20229;-85
2023/07/22 05:20:22;;;;;;;1.98;1.88;;;21.20;62.00;;;;;;5138117;27;20159;-86
2023/07/22 05:22:48;;;;;;;1.88;1.70;;;21.30;61.90;;;;;;5138480;27;20169;-87
2023/07/22 05:25:14;;;;;;;1.95;1.85;;;21.30;61.80;;;;;;5121061;27;20211;-83
2023/07/22 05:27:40;;;;;;;2.13;1.90;;;21.30;61.80;;;;;;5121082;27;20166;-84
2023/07/22 05:30:07;;;;;;;2.20;2.00;;;21.30;61.90;;;;;;5156512;27;20181;-84
2023/07/22 05:32:32;;;;;;;1.85;1.70;;;21.20;61.90;;;;;;5137970;27;20730;-84
2023/07/22 05:34:59;;;;;;;2.00;1.80;;;21.10;62.00;;;;;;5138543;27;20252;-82
2023/07/22 05:37:25;;;;;;;2.10;1.90;;;21.20;62.10;;;;;;5120679;27;20202;-84
2023/07/22 05:39:51;;;;;;;2.15;1.95;;;21.30;62.10;;;;;;5138018;27;20159;-87
2023/07/22 05:42:17;;;;;;;1.83;1.73;;;21.20;62.00;;;;;;5120593;27;20163;-86
2023/07/22 05:44:43;;;;;;;2.20;2.00;;;21.30;61.80;;;;;;5137828;27;20606;-83
2023/07/22 05:47:09;;;;;;;1.90;1.70;;;21.30;61.80;;;;;;5137999;27;20158;-86
2023/07/22 05:49:38;;;;;;;2.28;1.98;;;21.30;61.70;;;;;;5156128;27;20154;-82
2023/07/22 05:52:04;;;;;;;1.92;1.80;;;21.30;61.70;;;;;;5134054;27;20575;-82
2023/07/22 05:54:30;;;;;;;2.20;2.00;;;21.30;61.70;;;;;;5135409;27;20212;-84
2023/07/22 05:56:56;;;;;;;2.08;1.80;;;21.20;61.70;;;;;;5133854;27;20195;-86
2023/07/22 05:59:22;;;;;;;2.00;1.90;;;21.20;61.70;;;;;;5133996;27;20146;-85
2023/07/22 06:01:47;;;;;;;1.80;1.60;;;21.30;61.70;;;;;;5135196;27;20152;-86
2023/07/22 06:04:14;;;;;;;1.85;1.75;;;21.30;61.50;;;;;;5116814;27;20174;-86
2023/07/22 06:06:39;;;;;;;1.83;1.73;;;21.30;61.60;;;;;;5135316;27;20187;-88
2023/07/22 06:09:05;;;;;;;2.15;1.90;;;21.30;61.40;;;;;;5133086;27;20543;-85
2023/07/22 06:11:31;;;;;;;2.00;1.80;;;21.50;61.30;;;;;;5134921;27;20152;-85
2023/07/22 06:13:57;;;;;;;1.90;1.80;;;21.40;61.00;;;;;;5133773;27;20170;-83
2023/07/22 06:16:23;;;;;;;1.60;1.50;;;21.50;61.20;;;;;;5134747;27;20191;-85
2023/07/22 06:18:49;;;;;;;1.73;1.60;;;21.50;61.00;;;;;;5133760;27;20155;-82
2023/07/22 06:21:15;;;;;;;2.00;1.90;;;21.40;61.00;;;;;;5135131;27;20156;-86
2023/07/22 06:23:41;;;;;;;1.80;1.70;;;21.40;61.30;;;;;;5135316;27;20152;-86
2023/07/22 06:26:07;;;;;;;1.75;1.65;;;21.40;61.40;;;;;;5116876;27;20163;-82
2023/07/22 06:28:33;;;;;;;1.73;1.63;;;21.40;61.00;;;;;;5116617;27;20178;-86
2023/07/22 06:31:03;;;;;;;2.08;1.88;;;21.50;60.90;;;;;;5134674;27;20159;-84
2023/07/22 06:33:29;;;;;;;1.90;1.80;;;21.50;60.80;;;;;;5098781;27;20182;-82
2023/07/22 06:35:55;;;;;;;1.65;1.55;;;21.50;60.90;;;;;;5134578;27;20191;-85
2023/07/22 06:38:21;;;;;;;2.13;1.80;;;21.50;60.80;;;;;;5134496;27;20139;-85
2023/07/22 06:40:46;;;;;;;1.98;1.77;;;21.40;61.20;;;;;;5133337;27;20238;-84
2023/07/22 06:43:12;;;;;;;1.83;1.63;;;21.30;61.60;;;;;;5133206;27;20261;-86
2023/07/22 06:45:38;;;;;;;1.80;1.70;;;21.10;61.70;;;;;;5116345;27;20200;-84
2023/07/22 06:48:04;;;;;;;2.00;1.80;;;21.10;61.90;;;;;;5133111;27;20162;-86
2023/07/22 06:50:30;;;;;;;1.70;1.55;;;21.10;62.00;;;;;;5134413;27;20156;-85
2023/07/22 06:52:56;;;;;;;1.48;1.38;;;21.10;62.00;;;;;;5152124;27;20221;-86
2023/07/22 06:55:22;;;;;;;1.65;1.55;;;21.10;61.90;;;;;;5119490;27;20692;-86
2023/07/22 06:57:49;;;;;;;1.75;1.63;;;21.10;62.00;;;;;;5136510;27;20197;-85
2023/07/22 07:00:15;;;;;;;1.60;1.50;;;21.00;62.10;;;;;;5136543;27;20175;-86
2023/07/22 07:02:41;;;;;;;1.60;1.50;;;21.00;61.90;;;;;;5136851;27;20171;-85
2023/07/22 07:05:07;;;;;;;1.20;1.10;;;21.10;62.00;;;;;;5154995;27;20165;-83
2023/07/22 07:07:33;;;;;;;2.10;1.63;;;21.10;61.70;;;;;;5136848;27;20155;-86
2023/07/22 07:09:59;;;;;;;1.70;1.60;;;21.10;61.50;;;;;;5136464;27;20147;-84
2023/07/22 07:12:25;;;;;;;1.40;1.30;;;21.00;61.70;;;;;;5155080;27;20162;-85
2023/07/22 07:14:52;;;;;;;1.70;1.40;;;21.00;61.50;;;;;;5154844;27;20195;-84
2023/07/22 07:17:18;;;;;;;1.67;1.55;;;21.10;61.60;;;;;;5136477;27;20217;-88
2023/07/22 07:19:44;;;;;;;1.98;1.77;;;21.10;61.70;;;;;;5138748;27;20159;-82
2023/07/22 07:22:10;;;;;;;2.17;1.20;;;21.00;61.70;;;;;;5123623;27;20167;-86
2023/07/22 07:24:36;;;;;;;1.20;1.10;;;20.90;61.70;;;;;;5140518;27;20520;-85
2023/07/22 07:27:02;;;;;;;1.58;1.35;;;21.00;61.50;;;;;;5140442;27;20151;-84
2023/07/22 07:29:28;;;;;;;1.27;1.17;;;21.00;61.60;;;;;;5123581;27;20155;-86
2023/07/22 07:31:54;;;;;;;1.50;1.40;;;21.00;61.50;;;;;;5123453;27;20182;-89
2023/07/22 07:34:20;;;;;;;1.45;1.35;;;21.00;61.40;;;;;;5158830;27;20323;-84
2023/07/22 07:36:46;;;;;;;1.13;1.08;;;21.00;61.30;;;;;;5140420;27;20190;-84
2023/07/22 07:39:12;;;;;;;1.40;1.30;;;20.90;61.50;;;;;;5123300;27;20165;-86
2023/07/22 07:41:38;;;;;;;1.33;1.20;;;21.00;61.10;;;;;;5158606;27;20147;-86
2023/07/22 07:44:04;;;;;;;1.15;1.05;;;21.00;61.10;;;;;;5122963;27;20151;-85
2023/07/22 07:46:30;;;;;;;1.27;1.17;;;21.00;61.00;;;;;;5158486;27;20186;-84
2023/07/22 07:48:58;;;;;;;1.40;1.30;;;21.00;60.70;;;;;;5158531;27;20217;-86
2023/07/22 07:51:26;;;;;;;1.48;1.38;;;21.00;60.80;;;;;;5158448;27;20213;-85
2023/07/22 07:53:52;;;;;;;1.33;1.23;;;20.90;61.00;;;;;;5158466;27;20173;-86
2023/07/22 07:56:18;;;;;;;1.60;1.50;;;20.90;60.90;;;;;;5139908;27;20186;-83
2023/07/22 07:58:45;;;;;;;1.20;1.10;;;20.90;61.10;;;;;;5122576;27;20609;-85
2023/07/22 08:01:11;;;;;;;1.50;1.40;;;21.00;60.70;;;;;;5158311;27;20527;-85
2023/07/22 08:03:41;;;;;;;1.35;1.25;;;20.90;60.90;;;;;;5158321;27;20616;-83
2023/07/22 08:06:08;;;;;;;1.25;1.15;;;20.90;60.90;;;;;;5088323;27;20724;-84
2023/07/22 08:08:34;;;;;;;1.35;1.25;;;20.90;61.10;;;;;;5122443;27;20199;-83
2023/07/22 08:11:09;;;;;;;1.20;1.10;;;20.90;60.70;;;;;;5122462;27;20155;-85
2023/07/22 08:13:35;;;;;;;1.27;1.17;;;21.00;61.60;;;;;;5122324;27;20161;-84
2023/07/22 08:16:03;;;;;;;1.33;1.23;;;21.00;61.60;;;;;;5122340;27;20190;-82
2023/07/22 08:18:30;;;;;;;1.38;1.27;;;21.00;60.60;;;;;;5122774;27;20154;-85
2023/07/22 08:20:56;;;;;;;1.30;1.20;;;21.00;61.40;;;;;;5159097;27;20174;-82
2023/07/22 08:23:22;;;;;;;1.20;1.10;;;20.90;60.70;;;;;;5139473;27;20147;-83
2023/07/22 08:25:49;;;;;;;1.20;1.10;;;21.00;60.40;;;;;;5122140;27;20246;-84
2023/07/22 08:28:15;;;;;;;0.93;0.93;;;21.00;60.20;;;;;;5122199;27;20241;-84
2023/07/22 08:30:42;;;;;;;1.50;1.23;;;21.00;60.10;;;;;;5138745;27;20230;-85
2023/07/22 08:33:08;;;;;;;1.30;1.20;;;20.90;60.20;;;;;;5122061;27;20171;-85
2023/07/22 08:35:36;;;;;;;1.35;1.02;;;21.10;59.70;;;;;;5122257;27;20166;-82
2023/07/22 08:38:02;;;;;;;1.50;1.40;;;21.20;59.50;;;;;;5139584;27;20664;-85
2023/07/22 08:40:36;;;;;;;1.10;1.00;;;21.10;59.60;;;;;;5138926;27;20155;-83
2023/07/22 08:43:02;;;;;;;1.52;1.13;;;21.10;59.50;;;;;;5139104;27;20158;-88
2023/07/22 08:45:32;;;;;;;1.10;1.10;;;21.10;59.50;;;;;;5121742;27;20581;-87
2023/07/22 08:47:59;;;;;;;1.10;1.00;;;21.10;59.50;;;;;;5139181;27;20601;-84
2023/07/22 08:50:30;;;;;;;1.20;1.10;;;21.10;59.20;;;;;;5121820;27;20159;-84
2023/07/22 08:52:56;;;;;;;1.05;1.00;;;21.00;59.30;;;;;;5138763;27;20304;-82
2023/07/22 08:55:23;;;;;;;1.30;1.20;;;21.00;59.50;;;;;;5157238;27;20517;-81
2023/07/22 08:57:49;;;;;;;1.30;1.20;;;21.00;60.10;;;;;;5138842;27;20178;-84
2023/07/22 09:00:19;;;;;;;1.10;1.00;;;21.10;59.10;;;;;;5138663;27;20230;-85
2023/07/22 09:02:45;;;;;;;1.30;1.20;;;21.10;59.20;;;;;;5104094;27;20625;-83
2023/07/22 09:05:11;;;;;;;1.45;1.27;;;21.00;59.40;;;;;;5138504;27;20249;-84
2023/07/22 09:07:38;;;;;;;1.15;1.05;;;20.90;59.50;;;;;;5138441;27;20152;-86
2023/07/22 09:10:07;;;;;;;0.93;0.93;;;20.90;59.40;;;;;;5121275;27;20163;-82
2023/07/22 09:12:39;;;;;;;1.00;1.00;;;21.00;60.00;;;;;;5156920;27;20151;-84
2023/07/22 09:15:10;;;;;;;1.10;1.00;;;21.00;59.10;;;;;;5104840;27;20182;-86
2023/07/22 09:17:37;;;;;;;0.90;0.90;;;21.00;59.10;;;;;;5121094;27;20218;-85
2023/07/22 09:20:03;;;;;;;1.23;1.02;;;21.10;58.90;;;;;;5138619;27;20234;-85
2023/07/22 09:22:29;;;;;;;1.33;1.05;;;21.00;59.00;;;;;;5138309;27;20154;-85
2023/07/22 09:25:16;;;;;;;1.10;1.00;;;21.10;58.80;;;;;;5120922;27;20163;-85
2023/07/22 09:27:43;;;;;;;1.20;1.05;;;21.00;58.70;;;;;;5138341;27;20170;-83
2023/07/22 09:30:30;;;;;;;1.20;1.10;;;21.00;58.80;;;;;;5121204;27;20165;-87
2023/07/22 09:32:58;;;;;;;1.20;1.10;;;21.00;58.80;;;;;;5138144;27;20626;-85
2023/07/22 09:35:27;;;;;;;1.63;1.30;;;21.00;58.60;;;;;;5121107;27;20158;-88
2023/07/22 09:37:54;;;;;;;1.05;1.05;;;21.00;58.90;;;;;;5137974;27;20270;-86
2023/07/22 09:40:23;;;;;;;0.82;0.82;;;20.90;58.90;;;;;;5156429;27;20154;-85
2023/07/22 09:42:51;;;;;;;1.27;1.17;;;21.10;58.50;;;;;;5155309;27;20147;-87
2023/07/22 09:45:18;;;;;;;1.17;1.00;;;21.10;58.60;;;;;;5156441;27;20609;-85
2023/07/22 09:47:46;;;;;;;1.25;1.10;;;21.10;58.40;;;;;;5137732;27;20155;-85
2023/07/22 09:50:16;;;;;;;0.98;0.95;;;21.10;58.20;;;;;;5120470;27;20534;-86
2023/07/22 09:52:48;;;;;;;0.95;0.90;;;21.20;58.10;;;;;;5120528;27;20304;-86
2023/07/22 09:55:17;;;;;;;1.15;1.05;;;21.10;58.20;;;;;;5069642;27;20310;-85
2023/07/22 09:57:45;;;;;;;1.02;1.00;;;21.10;58.30;;;;;;5137853;27;20196;-87
2023/07/22 10:00:14;;;;;;;0.85;0.85;;;21.10;58.30;;;;;;5120240;27;20161;-84
2023/07/22 10:02:41;;;;;;;1.35;1.10;;;21.10;58.30;;;;;;5120145;27;20712;-86
2023/07/22 10:05:08;;;;;;;1.10;1.00;;;21.10;58.40;;;;;;5136309;27;20199;-87
2023/07/22 10:07:34;;;;;;;1.17;1.00;;;21.00;58.50;;;;;;5153839;27;20163;-87
2023/07/22 10:10:00;;;;;;;1.30;0.90;;;20.90;58.70;;;;;;5154029;27;20163;-87
2023/07/22 10:12:26;;;;;;;1.38;1.20;;;20.90;58.70;;;;;;5153968;27;20234;-85
2023/07/22 10:14:52;;;;;;;1.25;1.15;;;20.80;58.80;;;;;;5153821;27;20235;-85
2023/07/22 10:17:18;;;;;;;1.17;1.08;;;20.80;58.80;;;;;;5153785;27;20619;-87
2023/07/22 10:19:44;;;;;;;0.80;0.80;;;20.80;58.80;;;;;;5154110;27;20190;-82
2023/07/22 10:22:11;;;;;;;1.20;1.10;;;20.80;58.80;;;;;;5136798;27;20824;-85
2023/07/22 10:24:37;;;;;;;1.10;1.00;;;20.80;58.70;;;;;;5119476;27;20155;-84
2023/07/22 10:27:03;;;;;;;1.10;1.00;;;20.80;58.70;;;;;;5155121;27;20700;-81
2023/07/22 10:29:29;;;;;;;0.88;0.88;;;20.80;58.70;;;;;;5155199;27;20239;-85
2023/07/22 10:31:55;;;;;;;1.42;1.20;;;20.80;58.70;;;;;;5136800;27;20158;-88
2023/07/22 10:34:23;;;;;;;1.65;1.20;;;20.80;58.80;;;;;;5119403;27;20253;-87
2023/07/22 10:36:49;;;;;;;1.10;1.00;;;20.80;58.60;;;;;;5154747;27;20186;-84
2023/07/22 10:39:27;;;;;;;0.90;0.90;;;20.80;58.70;;;;;;5136511;27;20215;-86
2023/07/22 10:42:04;;;;;;;1.17;1.00;;;20.80;58.60;;;;;;5119076;27;20169;-83
2023/07/22 10:44:33;;;;;;;0.80;0.80;;;20.80;58.50;;;;;;5119531;27;20256;-81
2023/07/22 10:46:59;;;;;;;0.98;0.90;;;20.80;58.50;;;;;;5119130;27;20174;-85
2023/07/22 10:49:29;;;;;;;0.90;0.85;;;20.80;58.50;;;;;;5154775;27;20139;-84
2023/07/22 10:51:56;;;;;;;1.02;0.90;;;20.80;58.30;;;;;;5132842;27;20830;-82
2023/07/22 10:54:39;;;;;;;0.82;0.80;;;20.80;58.30;;;;;;5115319;28;20167;-84
2023/07/22 10:57:30;;;;;;;1.10;1.00;;;20.80;58.20;;;;;;5132713;27;20225;-84
2023/07/22 10:59:57;;;;;;;0.82;0.82;;;20.90;58.30;;;;;;5098608;28;20187;-84
2023/07/22 11:02:25;;;;;;;1.08;0.98;;;20.80;58.20;;;;;;5134030;28;20693;-85
2023/07/22 11:05:01;;;;;;;1.10;0.90;;;20.80;58.10;;;;;;5132486;28;20586;-83
2023/07/22 11:07:47;;;;;;;0.98;0.90;;;20.80;58.10;;;;;;5098498;28;20191;-83
2023/07/22 11:10:16;;;;;;;1.20;1.10;;;20.80;58.10;;;;;;5094714;28;20278;-82
2023/07/22 11:12:44;;;;;;;1.13;0.90;;;20.80;58.10;;;;;;5111147;28;20184;-81
2023/07/22 11:15:10;;;;;;;0.80;0.80;;;20.80;58.10;;;;;;5111050;28;20694;-84
2023/07/22 11:17:36;;;;;;;0.90;0.90;;;20.80;58.10;;;;;;5094127;28;20206;-84
2023/07/22 11:20:02;;;;;;;0.90;0.90;;;20.80;58.10;;;;;;5094245;28;20184;-85
2023/07/22 11:22:31;;;;;;;1.00;1.00;;;20.80;58.00;;;;;;5094159;28;20152;-85
2023/07/22 11:24:58;;;;;;;1.15;1.05;;;20.90;58.10;;;;;;5111471;28;20180;-84
2023/07/22 11:27:28;;;;;;;1.02;0.93;;;20.90;58.00;;;;;;5094308;28;20163;-82
2023/07/22 11:30:00;;;;;;;0.80;0.80;;;20.90;57.90;;;;;;5060555;28;20180;-84
2023/07/22 11:32:26;;;;;;;0.90;0.80;;;20.90;57.90;;;;;;5077148;28;20646;-84
2023/07/22 11:34:53;;;;;;;1.10;1.00;;;20.90;57.90;;;;;;5094164;28;20220;-83
2023/07/22 11:37:19;;;;;;;1.02;0.82;;;20.90;57.70;;;;;;5111281;28;20203;-85
2023/07/22 11:39:46;;;;;;;1.30;1.17;;;21.00;57.70;;;;;;5111103;28;20255;-85
2023/07/22 11:42:12;;;;;;;0.90;0.90;;;21.00;57.60;;;;;;5131708;28;20183;-82
2023/07/22 11:44:38;;;;;;;1.10;1.00;;;21.00;57.50;;;;;;5133577;28;20148;-83
2023/07/22 11:47:05;;;;;;;1.10;1.00;;;21.00;57.40;;;;;;5115245;28;20170;-86
2023/07/22 11:49:36;;;;;;;1.10;1.00;;;21.00;57.40;;;;;;5132582;28;20178;-87
2023/07/22 11:52:07;;;;;;;1.10;1.00;;;21.00;57.30;;;;;;5132254;28;20237;-83
2023/07/22 11:54:34;;;;;;;1.00;1.00;;;21.00;57.30;;;;;;5132542;28;20140;-86
2023/07/22 11:57:17;;;;;;;1.10;0.90;;;21.00;57.20;;;;;;5132833;28;20246;-84
2023/07/22 11:59:49;;;;;;;1.30;1.20;;;21.10;57.20;;;;;;5132967;28;20147;-85
2023/07/22 12:02:16;;;;;;;0.80;0.80;;;21.10;57.10;;;;;;5099271;28;20179;-86
2023/07/22 12:04:42;;;;;;;1.02;0.93;;;21.10;57.10;;;;;;5132171;27;20220;-83
2023/07/22 12:07:25;;;;;;;1.08;0.98;;;21.10;56.90;;;;;;5135050;27;20622;-85
2023/07/22 12:09:52;;;;;;;1.38;1.13;;;21.10;56.80;;;;;;5137269;27;20234;-86
2023/07/22 12:12:18;;;;;;;1.30;1.13;;;21.20;56.80;;;;;;5135833;27;20156;-85
2023/07/22 12:14:44;;;;;;;1.13;1.00;;;21.20;56.70;;;;;;5135914;27;20510;-86
2023/07/22 12:17:10;;;;;;;1.15;1.05;;;21.20;56.80;;;;;;5135835;27;20217;-88
2023/07/22 12:19:36;;;;;;;1.45;1.00;;;21.20;56.70;;;;;;5118914;27;20163;-84
2023/07/22 12:22:02;;;;;;;0.88;0.88;;;21.20;56.60;;;;;;5135837;27;20156;-85
2023/07/22 12:24:28;;;;;;;1.13;1.02;;;21.20;56.50;;;;;;5137038;27;20521;-86
2023/07/22 12:26:58;;;;;;;1.20;1.10;;;21.20;56.60;;;;;;5118473;27;20167;-85
2023/07/22 12:29:28;;;;;;;1.38;1.13;;;21.20;56.50;;;;;;5118038;27;20175;-83
2023/07/22 12:31:54;;;;;;;1.48;1.10;;;21.20;56.50;;;;;;5101107;27;20179;-85
2023/07/22 12:34:20;;;;;;;1.17;1.08;;;21.20;56.40;;;;;;5135526;27;20158;-87
2023/07/22 12:36:46;;;;;;;1.20;1.10;;;21.20;56.30;;;;;;5136852;27;20278;-85
2023/07/22 12:39:12;;;;;;;1.10;1.00;;;21.20;56.30;;;;;;5118192;27;20177;-84
2023/07/22 12:41:38;;;;;;;1.40;1.20;;;21.20;56.40;;;;;;5118211;27;20629;-83
2023/07/22 12:44:04;;;;;;;0.93;0.93;;;21.20;56.30;;;;;;5135526;27;20181;-85
2023/07/22 12:46:30;;;;;;;1.30;1.20;;;21.20;56.10;;;;;;5136485;27;20228;-88